.
WxDataArchive / Data Records for 2007-06-17
2007-06-16 June 2007 2007-06-18

Data Records for Sunday, 17 June 2007

Time	Temp	Chill	HIndex	Humid	Dewpt	 Wind 	HiWind	WindDir	Rain 	Barom 
-----	----	-----	------	-----	-----	------	------	-------	-----	----- 
00:00	73.9	73.9	73.9	62	60.0	0	0	---	0.00	29.911 
00:05	73.7	73.7	73.7	63	60.3	0	0	---	0.00	29.909 
00:10	73.2	73.2	73.2	63	59.8	0	0	---	0.00	29.911 
00:15	73.0	73.0	73.0	64	60.1	0	0	---	0.00	29.909 
00:20	72.7	72.7	72.7	65	60.2	0	0	---	0.00	29.912 
00:25	72.3	72.3	72.3	66	60.3	0	0	---	0.00	29.912 
00:30	72.0	72.0	72.0	66	60.0	0	0	---	0.00	29.913 
00:35	71.6	71.6	71.6	67	60.0	0	0	---	0.00	29.914 
00:40	71.5	71.5	71.5	68	60.4	0	0	---	0.00	29.913 
00:45	71.1	71.1	71.1	68	60.0	0	0	---	0.00	29.914 
00:50	70.9	70.9	70.9	69	60.2	0	0	---	0.00	29.915 
00:55	70.6	70.6	70.6	69	59.9	0	0	---	0.00	29.913 
01:00	70.4	70.4	70.4	70	60.1	0	0	---	0.00	29.915 
01:05	70.3	70.3	70.3	71	60.4	0	0	---	0.00	29.913 
01:10	70.1	70.1	70.1	72	60.6	0	0	---	0.00	29.913 
01:15	69.9	69.9	69.9	72	60.4	0	0	---	0.00	29.910 
01:20	69.9	69.9	69.9	73	60.8	0	0	---	0.00	29.910 
01:25	69.8	69.8	69.8	73	60.7	0	0	---	0.00	29.910 
01:30	69.8	69.8	69.8	73	60.7	0	0	---	0.00	29.912 
01:35	69.8	69.8	69.8	74	61.1	0	0	---	0.00	29.914 
01:40	69.8	69.8	69.8	74	61.1	0	0	---	0.00	29.915 
01:45	69.9	69.9	69.9	74	61.2	0	1	292	0.00	29.916 
01:50	69.9	69.9	69.9	74	61.2	0	0	---	0.00	29.917 
01:55	70.1	70.1	70.1	73	61.0	0	0	---	0.00	29.917 
02:00	70.1	70.1	70.1	74	61.4	0	0	---	0.00	29.915 
02:05	70.3	70.3	70.3	73	61.2	0	0	---	0.00	29.916 
02:10	70.3	70.3	70.3	73	61.2	0	0	---	0.00	29.914 
02:15	70.4	70.4	70.4	73	61.3	0	0	---	0.00	29.914 
02:20	70.4	70.4	70.4	72	60.9	0	0	---	0.00	29.914 
02:25	70.4	70.4	70.4	72	60.9	0	0	---	0.00	29.914 
02:30	70.4	70.4	70.4	72	60.9	0	0	---	0.00	29.914 
02:35	70.3	70.3	70.3	72	60.8	0	0	---	0.00	29.911 
02:40	70.1	70.1	70.1	73	61.0	0	0	---	0.00	29.910 
02:45	69.9	69.9	69.9	73	60.8	0	0	---	0.00	29.907 
02:50	69.8	69.8	69.8	73	60.7	0	0	---	0.00	29.907 
02:55	69.6	69.6	69.6	74	60.9	0	0	---	0.00	29.903 
03:00	69.3	69.3	69.3	75	61.0	0	0	---	0.00	29.902 
03:05	69.1	69.1	69.1	75	60.8	0	0	---	0.00	29.900 
03:10	68.9	68.9	68.9	76	61.0	0	0	---	0.00	29.902 
03:15	68.8	68.8	68.8	77	61.3	0	0	---	0.00	29.901 
03:20	68.6	68.6	68.6	77	61.1	0	0	---	0.00	29.900 
03:25	68.4	68.4	68.4	77	60.9	0	0	---	0.00	29.902 
03:30	68.4	68.4	68.4	78	61.3	0	0	---	0.00	29.903 
03:35	68.3	68.3	68.3	78	61.2	0	0	---	0.00	29.904 
03:40	68.3	68.3	68.3	78	61.2	0	0	---	0.00	29.908 
03:45	68.1	68.1	68.1	79	61.3	0	0	---	0.00	29.907 
03:50	68.1	68.1	68.1	79	61.3	0	0	---	0.00	29.909 
03:55	67.9	67.9	67.9	79	61.1	0	0	---	0.00	29.910 
04:00	67.8	67.8	67.8	80	61.4	0	0	---	0.00	29.912 
04:05	67.8	67.8	67.8	80	61.4	0	0	---	0.00	29.909 
04:10	67.6	67.6	67.6	81	61.6	0	0	---	0.00	29.914 
04:15	67.9	67.9	67.9	81	61.8	0	0	---	0.00	29.916 
04:20	68.1	68.1	68.1	80	61.7	0	0	---	0.00	29.915 
04:25	68.3	68.3	68.3	81	62.2	0	0	---	0.00	29.916 
04:30	68.3	68.3	68.3	80	61.9	0	0	---	0.00	29.916 
04:35	68.1	68.1	68.1	80	61.7	0	0	---	0.00	29.917 
04:40	68.1	68.1	68.1	81	62.0	0	0	---	0.00	29.918 
04:45	67.9	67.9	67.9	81	61.8	0	0	---	0.00	29.918 
04:50	67.8	67.8	67.8	81	61.7	0	0	---	0.00	29.921 
04:55	67.6	67.6	67.6	81	61.6	0	0	---	0.00	29.920 
05:00	67.4	67.4	67.4	82	61.7	0	0	---	0.00	29.920 
05:05	67.1	67.1	67.1	82	61.4	0	0	---	0.00	29.921 
05:10	66.9	66.9	66.9	83	61.6	0	0	---	0.00	29.925 
05:15	66.8	66.8	66.8	83	61.5	0	0	---	0.00	29.925 
05:20	66.6	66.6	66.6	84	61.6	0	0	---	0.00	29.925 
05:25	66.4	66.4	66.4	84	61.4	0	0	---	0.00	29.927 
05:30	66.4	66.4	66.4	84	61.4	0	0	---	0.00	29.929 
05:35	66.3	66.3	66.3	85	61.6	0	0	---	0.00	29.931 
05:40	66.3	66.3	66.3	85	61.6	0	0	---	0.00	29.932 
05:45	66.4	66.4	66.4	85	61.7	0	0	---	0.00	29.932 
05:50	66.4	66.4	66.4	85	61.7	0	0	---	0.00	29.931 
05:55	66.4	66.4	66.4	85	61.7	0	0	---	0.00	29.931 
06:00	66.6	66.6	66.6	85	61.9	0	0	---	0.00	29.933 
06:05	66.9	66.9	66.9	85	62.2	0	0	---	0.00	29.935 
06:10	67.1	67.1	67.1	85	62.4	0	0	---	0.00	29.935 
06:15	67.4	67.4	67.4	85	62.7	0	0	---	0.00	29.935 
06:20	67.9	67.9	67.9	84	62.9	0	0	---	0.00	29.935 
06:25	68.6	68.6	68.6	84	63.6	0	0	---	0.00	29.936 
06:30	69.4	69.4	69.4	82	63.7	0	0	---	0.00	29.934 
06:35	70.4	70.4	70.4	79	63.6	0	1	292	0.00	29.936 
06:40	71.3	71.3	71.3	76	63.3	0	1	292	0.00	29.933 
06:45	72.0	72.0	72.0	74	63.2	0	1	292	0.00	29.933 
06:50	72.5	72.5	72.5	73	63.3	0	0	---	0.00	29.934 
06:55	72.8	72.8	72.8	73	63.6	0	0	---	0.00	29.933 
07:00	73.0	73.0	73.0	72	63.4	0	0	---	0.00	29.932 
07:05	73.2	73.2	73.2	72	63.6	0	0	---	0.00	29.936 
07:10	73.5	73.5	73.5	71	63.5	0	1	292	0.00	29.937 
07:15	73.9	73.9	73.9	70	63.5	0	1	292	0.00	29.934 
07:20	74.6	74.6	74.6	69	63.7	0	1	292	0.00	29.935 
07:25	75.3	75.3	77.1	68	64.0	0	1	292	0.00	29.936 
07:30	75.8	75.8	77.7	65	63.2	0	1	292	0.00	29.935 
07:35	76.3	76.3	78.2	63	62.8	1	2	292	0.00	29.936 
07:40	76.7	76.7	78.5	64	63.6	0	1	292	0.00	29.939 
07:45	77.0	77.0	78.8	62	63.0	0	2	292	0.00	29.939 
07:50	77.4	77.4	79.2	62	63.3	1	2	292	0.00	29.941 
07:55	77.6	77.6	79.3	60	62.6	1	2	292	0.00	29.939 
08:00	77.9	77.9	79.6	60	62.9	1	2	292	0.00	29.936 
08:05	78.3	78.3	80.0	61	63.7	1	2	292	0.00	29.942 
08:10	78.8	78.8	80.4	59	63.2	1	3	248	0.00	29.942 
08:15	79.0	79.0	80.5	58	62.9	0	2	248	0.00	29.941 
08:20	79.4	79.4	80.9	58	63.3	0	2	248	0.00	29.940 
08:25	79.8	79.8	81.4	58	63.7	1	2	248	0.00	29.943 
08:30	80.1	80.1	81.5	56	63.0	0	2	248	0.00	29.940 
08:35	80.5	80.5	82.1	57	63.8	0	2	248	0.00	29.939 
08:40	80.7	80.7	82.3	57	64.0	0	2	248	0.00	29.939 
08:45	81.1	81.1	82.6	56	63.9	0	2	248	0.00	29.937 
08:50	81.4	81.4	82.8	55	63.7	1	2	248	0.00	29.942 
08:55	81.6	81.6	83.1	55	63.8	1	2	248	0.00	29.943 
09:00	81.6	81.6	82.9	54	63.3	1	4	292	0.00	29.945 
09:05	81.8	81.8	83.3	55	64.0	1	2	292	0.00	29.945 
09:10	82.0	82.0	83.9	57	65.2	0	3	292	0.00	29.945 
09:15	82.2	82.2	83.5	53	63.3	1	2	292	0.00	29.945 
09:20	82.2	82.2	83.6	54	63.9	0	2	292	0.00	29.946 
09:25	82.2	82.2	83.6	54	63.9	0	1	292	0.00	29.946 
09:30	82.8	82.8	84.4	54	64.4	1	2	292	0.00	29.947 
09:35	83.4	83.4	85.4	55	65.5	0	2	292	0.00	29.945 
09:40	83.8	83.8	85.5	53	64.8	0	2	292	0.00	29.943 
09:45	84.3	84.3	86.2	53	65.3	0	1	292	0.00	29.942 
09:50	84.9	84.9	86.6	51	64.7	0	3	22	0.00	29.941 
09:55	85.9	85.9	87.5	49	64.5	0	2	22	0.00	29.935 
10:00	86.3	86.3	88.0	49	64.9	0	2	22	0.00	29.936 
10:05	86.3	86.3	88.3	50	65.4	0	2	22	0.00	29.936 
10:10	86.3	86.3	88.3	50	65.4	0	1	22	0.00	29.940 
10:15	86.3	86.3	87.5	47	63.7	1	3	22	0.00	29.937 
10:20	86.5	86.5	88.9	51	66.2	0	3	68	0.00	29.937 
10:25	87.0	87.0	88.8	48	64.9	1	3	68	0.00	29.933 
10:30	86.7	86.7	88.6	49	65.2	1	3	248	0.00	29.932 
10:35	87.0	87.0	89.4	50	66.1	0	1	292	0.00	29.933 
10:40	87.0	87.0	88.8	48	64.9	1	4	270	0.00	29.932 
10:45	87.4	87.4	88.8	46	64.0	1	3	270	0.00	29.930 
10:50	88.0	88.0	89.7	46	64.6	1	3	180	0.00	29.929 
10:55	88.2	88.2	89.7	45	64.1	1	3	248	0.00	29.928 
11:00	88.4	88.4	89.3	43	63.0	1	5	225	0.00	29.926 
11:05	88.0	88.0	89.4	45	64.0	1	3	338	0.00	29.929 
11:10	88.0	88.0	90.0	47	65.2	1	2	248	0.00	29.928 
11:15	88.0	88.0	88.7	43	62.7	2	5	248	0.00	29.930 
11:20	88.0	88.0	89.7	46	64.6	1	5	338	0.00	29.932 
11:25	88.4	88.4	89.6	44	63.7	3	5	248	0.00	29.931 
11:30	88.8	88.8	89.9	43	63.4	2	4	248	0.00	29.933 
11:35	88.6	88.6	89.3	42	62.5	2	5	270	0.00	29.930 
11:40	88.6	88.6	90.3	45	64.5	1	3	248	0.00	29.930 
11:45	88.6	88.6	89.9	44	63.9	2	4	270	0.00	29.929 
11:50	88.4	88.4	89.6	44	63.7	2	4	248	0.00	29.931 
11:55	88.2	88.2	89.0	43	62.8	2	4	270	0.00	29.932 
12:00	87.6	87.6	88.5	44	63.0	2	4	315	0.00	29.931 
12:05	88.6	88.6	89.6	43	63.2	2	5	270	0.00	29.932 
12:10	89.0	89.0	90.2	43	63.6	2	4	315	0.00	29.932 
12:15	88.8	88.8	90.2	44	64.0	2	5	315	0.00	29.931 
12:20	89.0	89.0	90.5	44	64.2	1	5	315	0.00	29.931 
12:25	90.1	90.1	91.9	43	64.5	1	4	270	0.00	29.928 
12:30	89.7	89.7	90.2	40	62.1	2	4	315	0.00	29.930 
12:35	89.7	89.7	91.3	43	64.2	2	6	270	0.00	29.928 
12:40	90.1	90.1	90.5	39	61.8	2	6	270	0.00	29.928 
12:45	90.3	90.3	90.1	37	60.4	2	6	270	0.00	29.926 
12:50	90.5	90.5	90.4	37	60.6	2	4	248	0.00	29.926 
12:55	90.7	90.7	90.7	37	60.8	1	4	270	0.00	29.917 
13:00	91.0	91.0	90.2	34	58.7	3	6	270	0.00	29.917 
13:05	90.5	90.5	89.8	35	59.1	2	5	338	0.00	29.915 
13:10	90.7	90.7	90.4	36	60.0	2	4	248	0.00	29.914 
13:15	91.2	91.2	91.1	36	60.5	1	4	270	0.00	29.912 
13:20	90.7	90.7	90.4	36	60.0	3	6	270	0.00	29.914 
13:25	90.5	90.5	91.1	39	62.1	2	5	315	0.00	29.913 
13:30	91.0	91.0	91.5	38	61.8	1	5	270	0.00	29.911 
13:35	90.3	90.3	90.5	38	61.2	1	3	292	0.00	29.909 
13:40	90.7	90.7	90.7	37	60.8	2	4	338	0.00	29.906 
13:45	89.9	89.9	89.6	37	60.1	2	5	338	0.00	29.906 
13:50	90.5	90.5	90.7	38	61.4	2	4	270	0.00	29.902 
13:55	91.0	91.0	92.6	41	64.0	1	4	315	0.00	29.903 
14:00	91.4	91.4	92.1	38	62.2	2	4	315	0.00	29.903 
14:05	91.0	91.0	90.8	36	60.3	1	4	292	0.00	29.905 
14:10	91.0	91.0	91.1	37	61.1	2	4	315	0.00	29.900 
14:15	90.3	90.3	89.8	36	59.7	2	7	292	0.00	29.900 
14:20	90.7	90.7	91.0	38	61.6	1	3	270	0.00	29.900 
14:25	91.2	91.2	91.1	36	60.5	2	5	292	0.00	29.900 
14:30	91.0	91.0	90.5	35	59.5	1	3	292	0.00	29.900 
14:35	90.3	90.3	89.8	36	59.7	1	3	315	0.00	29.899 
14:40	90.7	90.7	90.4	36	60.0	1	4	315	0.00	29.894 
14:45	91.2	91.2	91.1	36	60.5	1	3	315	0.00	29.896 
14:50	91.2	91.2	90.8	35	59.7	2	4	315	0.00	29.894 
14:55	91.0	91.0	90.5	35	59.5	1	5	315	0.00	29.893 
15:00	91.0	91.0	90.5	35	59.5	1	4	315	0.00	29.893 
15:05	91.4	91.4	91.4	36	60.6	1	4	248	0.00	29.892 
15:10	91.4	91.4	90.7	34	59.0	1	4	292	0.00	29.890 
15:15	91.4	91.4	90.7	34	59.0	1	3	292	0.00	29.888 
15:20	91.6	91.6	91.0	34	59.2	2	3	292	0.00	29.887 
15:25	91.6	91.6	91.0	34	59.2	1	3	248	0.00	29.889 
15:30	91.4	91.4	91.0	35	59.8	1	5	315	0.00	29.890 
15:35	91.6	91.6	91.3	35	60.0	1	2	315	0.00	29.887 
15:40	91.8	91.8	90.7	32	57.7	1	4	315	0.00	29.885 
15:45	91.6	91.6	90.7	33	58.4	2	4	315	0.00	29.884 
15:50	91.6	91.6	90.4	32	57.5	2	4	248	0.00	29.883 
15:55	91.6	91.6	90.4	32	57.5	1	3	248	0.00	29.882 
16:00	91.8	91.8	91.6	35	60.2	1	3	270	0.00	29.879 
16:05	91.6	91.6	91.0	34	59.2	1	2	22	0.00	29.878 
16:10	91.8	91.8	90.4	31	56.8	1	4	22	0.00	29.878 
16:15	91.8	91.8	90.1	30	55.9	1	3	338	0.00	29.876 
16:20	91.6	91.6	89.8	30	55.7	2	4	292	0.00	29.878 
16:25	91.8	91.8	90.4	31	56.8	2	5	248	0.00	29.875 
16:30	92.1	92.1	90.8	31	57.1	2	4	292	0.00	29.874 
16:35	91.8	91.8	91.0	33	58.5	1	3	292	0.00	29.873 
16:40	91.4	91.4	89.9	31	56.5	2	3	315	0.00	29.871 
16:45	91.4	91.4	90.4	33	58.2	1	3	315	0.00	29.871 
16:50	91.4	91.4	90.1	32	57.3	0	2	292	0.00	29.873 
16:55	91.4	91.4	89.9	31	56.5	0	2	292	0.00	29.870 
17:00	91.2	91.2	89.9	32	57.2	0	2	292	0.00	29.871 
17:05	91.0	91.0	89.9	33	57.9	0	2	135	0.00	29.870 
17:10	90.7	90.7	89.2	32	56.7	0	2	135	0.00	29.870 
17:15	91.0	91.0	89.9	33	57.9	1	4	315	0.00	29.870 
17:20	90.7	90.7	89.5	33	57.6	0	2	315	0.00	29.870 
17:25	90.5	90.5	89.5	34	58.3	0	1	315	0.00	29.870 
17:30	90.3	90.3	89.0	33	57.2	1	3	315	0.00	29.871 
17:35	90.1	90.1	89.0	34	57.9	1	4	315	0.00	29.875 
17:40	90.1	90.1	89.0	34	57.9	0	2	270	0.00	29.877 
17:45	89.9	89.9	88.3	32	56.0	1	2	270	0.00	29.881 
17:50	89.7	89.7	88.5	34	57.6	0	2	292	0.00	29.885 
17:55	89.5	89.5	88.5	35	58.2	0	1	292	0.00	29.884 
18:00	89.5	89.5	88.3	34	57.4	0	2	315	0.00	29.885 
18:05	89.5	89.5	88.3	34	57.4	0	1	292	0.00	29.880 
18:10	89.3	89.3	88.3	35	58.0	0	1	315	0.00	29.879 
18:15	89.0	89.0	88.1	36	58.5	0	1	315	0.00	29.880 
18:20	89.0	89.0	87.7	34	56.9	0	1	292	0.00	29.877 
18:25	89.3	89.3	88.3	35	58.0	0	2	225	0.00	29.878 
18:30	89.0	89.0	87.7	34	56.9	0	1	225	0.00	29.877 
18:35	88.8	88.8	88.1	37	59.1	0	1	225	0.00	29.875 
18:40	88.6	88.6	88.2	38	59.7	0	2	225	0.00	29.876 
18:45	87.8	87.8	87.6	40	60.4	2	5	270	0.00	29.881 
18:50	86.3	86.3	86.7	44	61.8	2	4	270	0.00	29.882 
18:55	84.9	84.9	85.8	48	63.0	2	5	270	0.00	29.884 
19:00	83.4	83.4	84.8	52	63.9	1	3	270	0.00	29.884 
19:05	82.2	82.2	84.0	56	64.9	0	2	248	0.00	29.881 
19:10	81.4	81.4	83.0	56	64.2	1	3	292	0.00	29.884 
19:15	80.7	80.7	82.3	57	64.0	1	3	270	0.00	29.883 
19:20	80.3	80.3	81.9	58	64.2	1	2	270	0.00	29.884 
19:25	79.8	79.8	81.8	62	65.6	0	1	292	0.00	29.883 
19:30	79.4	79.4	81.1	60	64.3	0	2	270	0.00	29.886 
19:35	79.2	79.2	80.8	59	63.6	1	3	270	0.00	29.885 
19:40	79.6	79.6	81.2	58	63.5	1	2	270	0.00	29.885 
19:45	79.8	79.8	81.4	58	63.7	0	1	270	0.00	29.884 
19:50	79.8	79.8	81.4	58	63.7	0	1	270	0.00	29.884 
19:55	79.8	79.8	81.4	58	63.7	0	1	270	0.00	29.884 
20:00	79.6	79.6	81.3	59	64.0	0	0	---	0.00	29.885 
20:05	79.4	79.4	81.0	59	63.8	0	0	---	0.00	29.884 
20:10	79.0	79.0	80.7	60	63.9	0	0	---	0.00	29.886 
20:15	78.6	78.6	80.3	61	64.0	0	0	---	0.00	29.885 
20:20	78.6	78.6	80.3	61	64.0	0	0	---	0.00	29.887 
20:25	78.6	78.6	80.3	61	64.0	0	0	---	0.00	29.892 
20:30	78.5	78.5	80.3	62	64.4	0	0	---	0.00	29.893 
20:35	78.1	78.1	79.9	62	64.0	0	0	---	0.00	29.892 
20:40	77.9	77.9	79.6	62	63.8	0	0	---	0.00	29.896 
20:45	77.7	77.7	79.5	63	64.1	0	0	---	0.00	29.897 
20:50	77.6	77.6	79.4	64	64.4	0	0	---	0.00	29.897 
20:55	77.2	77.2	79.0	64	64.1	0	0	---	0.00	29.899 
21:00	77.0	77.0	78.8	64	63.9	0	0	---	0.00	29.901 
21:05	76.7	76.7	78.5	65	64.0	0	0	---	0.00	29.897 
21:10	76.5	76.5	78.3	66	64.3	0	0	---	0.00	29.898 
21:15	76.1	76.1	77.9	66	63.9	0	0	---	0.00	29.899 
21:20	76.1	76.1	77.8	69	65.2	0	0	---	0.00	29.901 
21:25	76.0	76.0	77.9	65	63.4	0	0	---	0.00	29.900 
21:30	76.1	76.1	77.9	66	63.9	0	0	---	0.00	29.901 
21:35	76.1	76.1	78.0	65	63.5	0	0	---	0.00	29.899 
21:40	76.1	76.1	78.0	65	63.5	0	0	---	0.00	29.899 
21:45	76.0	76.0	77.8	67	64.2	0	0	---	0.00	29.902 
21:50	75.8	75.8	77.7	66	63.6	0	0	---	0.00	29.905 
21:55	75.4	75.4	77.2	68	64.1	0	0	---	0.00	29.905 
22:00	75.3	75.3	77.0	69	64.4	0	0	---	0.00	29.906 
22:05	74.9	74.9	74.9	69	64.0	0	0	---	0.00	29.901 
22:10	74.6	74.6	74.6	70	64.2	0	0	---	0.00	29.900 
22:15	74.4	74.4	74.4	70	64.0	0	0	---	0.00	29.900 
22:20	74.2	74.2	74.2	70	63.8	0	0	---	0.00	29.899 
22:25	74.0	74.0	74.0	71	64.0	0	0	---	0.00	29.898 
22:30	73.9	73.9	73.9	71	63.9	0	0	---	0.00	29.898 
22:35	73.7	73.7	73.7	72	64.1	0	0	---	0.00	29.898 
22:40	73.5	73.5	73.5	72	63.9	0	0	---	0.00	29.897 
22:45	73.3	73.3	73.3	72	63.7	0	0	---	0.00	29.898 
22:50	73.2	73.2	73.2	73	64.0	0	0	---	0.00	29.899 
22:55	73.0	73.0	73.0	74	64.2	0	0	---	0.00	29.900 
23:00	72.8	72.8	72.8	74	64.0	0	0	---	0.00	29.903 
23:05	72.7	72.7	72.7	75	64.3	0	0	---	0.00	29.903 
23:10	72.7	72.7	72.7	76	64.7	0	0	---	0.00	29.903 
23:15	72.5	72.5	72.5	76	64.5	0	0	---	0.00	29.904 
23:20	72.3	72.3	72.3	76	64.3	0	0	---	0.00	29.906 
23:25	72.3	72.3	72.3	76	64.3	0	0	---	0.00	29.906 
23:30	72.3	72.3	72.3	77	64.7	0	0	---	0.00	29.902 
23:35	72.1	72.1	72.1	76	64.1	0	0	---	0.00	29.902 
23:40	72.1	72.1	72.1	76	64.1	0	0	---	0.00	29.899 
23:45	72.0	72.0	72.0	77	64.4	0	0	---	0.00	29.900 
23:50	72.0	72.0	72.0	78	64.8	0	0	---	0.00	29.901 
23:55	72.0	72.0	72.0	78	64.8	0	0	---	0.00	29.900 

CoCoRaHS
IN-AL-39
A2 Web Hosting
Creative Commons License
GoDaddy
Look for:

loaded 2017-10-20 20:01:24 • last modified 2010-11-18 10:43:29
Privacy PolicyDisclaimer
• wx.awcolley.com is powered by PmWiki v.2002016 •
• all content (unless otherwise noted) © 2017 A W Colley